createdAt,value
2018-05-05T00:02:10.093Z,6.63
2018-05-05T00:04:37.666Z,8.60
2018-05-05T00:07:06.028Z,7.13
2018-05-05T00:09:33.593Z,6.50
2018-05-05T00:12:01.166Z,5.90
2018-05-05T00:14:28.742Z,8.13
2018-05-05T00:16:56.321Z,6.77
2018-05-05T00:19:23.974Z,5.60
2018-05-05T00:21:51.548Z,5.83
2018-05-05T00:24:19.113Z,8.47
2018-05-05T00:26:47.470Z,6.77
2018-05-05T00:29:15.076Z,10.10
2018-05-05T00:31:42.658Z,8.33
2018-05-05T00:34:11.143Z,6.30
2018-05-05T00:36:38.724Z,9.17
2018-05-05T00:39:06.312Z,5.20
2018-05-05T00:41:33.889Z,10.90
2018-05-05T00:44:02.194Z,9.23
2018-05-05T00:46:29.760Z,9.40
2018-05-05T00:48:57.369Z,9.60
2018-05-05T00:51:24.946Z,12.00
2018-05-05T00:53:52.512Z,8.40
2018-05-05T00:56:21.002Z,5.90
2018-05-05T00:58:49.290Z,7.37
2018-05-05T01:01:17.762Z,10.07
2018-05-05T01:03:46.159Z,5.20
2018-05-05T01:06:14.497Z,8.67
2018-05-05T01:08:42.834Z,8.90
2018-05-05T01:11:10.409Z,8.50
2018-05-05T01:13:38.902Z,7.50
2018-05-05T01:16:06.481Z,9.23
2018-05-05T01:18:34.164Z,9.00
2018-05-05T01:21:01.734Z,4.70
2018-05-05T01:23:29.307Z,10.83
2018-05-05T01:25:57.690Z,8.87
2018-05-05T01:28:25.265Z,4.77
2018-05-05T01:30:53.678Z,6.77
2018-05-05T01:33:21.248Z,5.50
2018-05-05T01:35:49.628Z,5.40
2018-05-05T01:38:17.197Z,8.63
2018-05-05T01:40:44.799Z,8.80
2018-05-05T01:43:12.406Z,9.27
2018-05-05T01:45:39.990Z,7.33
2018-05-05T01:48:07.644Z,7.20
2018-05-05T01:50:35.173Z,18.33
2018-05-05T01:53:02.748Z,11.83
2018-05-05T01:55:30.320Z,5.73
2018-05-05T01:57:57.885Z,7.60
2018-05-05T02:00:25.454Z,8.93
2018-05-05T02:02:53.026Z,12.17
2018-05-05T02:05:20.649Z,8.40
2018-05-05T02:07:48.231Z,15.80
2018-05-05T02:10:15.804Z,10.73
2018-05-05T02:12:43.421Z,8.70
2018-05-05T02:15:11.877Z,8.70
2018-05-05T02:17:39.448Z,7.47
2018-05-05T02:20:07.052Z,6.77
2018-05-05T02:22:34.617Z,9.77
2018-05-05T02:25:02.951Z,15.03
2018-05-05T02:27:30.525Z,8.57
2018-05-05T02:29:58.092Z,10.40
2018-05-05T02:32:25.659Z,7.20
2018-05-05T02:34:54.127Z,10.03
2018-05-05T02:37:21.705Z,12.20
2018-05-05T02:39:49.289Z,10.50
2018-05-05T02:42:16.866Z,8.53
2018-05-05T02:44:44.461Z,8.97
2018-05-05T02:47:12.037Z,8.60
2018-05-05T02:49:39.609Z,6.50
2018-05-05T02:52:07.188Z,13.87
2018-05-05T02:54:34.766Z,12.30
2018-05-05T02:57:02.329Z,8.70
2018-05-05T02:59:29.902Z,11.50
2018-05-05T03:01:57.479Z,9.30
2018-05-05T03:04:25.047Z,9.13
2018-05-05T03:06:52.620Z,10.33
2018-05-05T03:09:20.197Z,13.57
2018-05-05T03:11:47.769Z,12.40
2018-05-05T03:14:15.337Z,8.40
2018-05-05T03:16:42.915Z,11.10
2018-05-05T03:19:10.517Z,8.00
2018-05-05T03:21:38.092Z,12.43
2018-05-05T03:24:05.657Z,6.60
2018-05-05T03:26:33.233Z,11.77
2018-05-05T03:29:00.816Z,11.37
2018-05-05T03:31:28.420Z,15.43
2018-05-05T03:33:55.985Z,8.67
2018-05-05T03:36:23.557Z,10.87
2018-05-05T03:38:51.124Z,9.90
2018-05-05T03:41:18.696Z,10.00
2018-05-05T03:43:46.264Z,8.97
2018-05-05T03:46:13.836Z,14.40
2018-05-05T03:48:41.406Z,6.73
2018-05-05T03:51:08.972Z,9.73
2018-05-05T03:53:36.565Z,9.63
2018-05-05T03:56:04.142Z,13.57
2018-05-05T03:58:31.713Z,11.57
2018-05-05T04:01:11.036Z,7.20
2018-05-05T04:03:47.606Z,5.57
2018-05-05T04:06:15.173Z,12.47
2018-05-05T04:08:42.748Z,8.33
2018-05-05T04:11:10.327Z,12.03
2018-05-05T04:13:38.010Z,7.67
2018-05-05T04:16:06.372Z,18.20
2018-05-05T04:18:33.951Z,6.87
2018-05-05T04:21:01.559Z,10.87
2018-05-05T04:23:29.132Z,18.57
2018-05-05T04:25:56.714Z,10.57
2018-05-05T04:28:24.288Z,12.03
2018-05-05T04:30:51.864Z,6.80
2018-05-05T04:33:20.218Z,14.90
2018-05-05T04:35:47.790Z,9.93
2018-05-05T04:38:15.417Z,9.73
2018-05-05T04:40:42.984Z,10.77
2018-05-05T04:43:10.557Z,7.17
2018-05-05T04:45:38.168Z,10.50
2018-05-05T04:48:05.733Z,6.80
2018-05-05T04:50:33.309Z,10.43
2018-05-05T04:53:01.677Z,10.07
2018-05-05T04:55:29.249Z,8.03
2018-05-05T04:57:56.861Z,8.03
2018-05-05T05:00:24.430Z,6.47
2018-05-05T05:02:51.998Z,7.23
2018-05-05T05:05:19.646Z,9.63
2018-05-05T05:07:47.241Z,7.27
2018-05-05T05:10:15.761Z,14.40
2018-05-05T05:12:44.292Z,8.33
2018-05-05T05:15:11.889Z,11.33
2018-05-05T05:17:39.462Z,10.37
2018-05-05T05:20:07.888Z,8.70
2018-05-05T05:22:36.228Z,9.30
2018-05-05T05:25:04.601Z,8.13
2018-05-05T05:27:32.946Z,9.03
2018-05-05T05:30:00.513Z,5.77
2018-05-05T05:32:28.076Z,9.80
2018-05-05T05:34:56.414Z,6.97
2018-05-05T05:37:23.988Z,8.17
2018-05-05T05:39:51.557Z,9.37
2018-05-05T05:42:19.896Z,6.40
2018-05-05T05:44:47.469Z,5.20
2018-05-05T05:47:15.037Z,11.23
2018-05-05T05:49:43.452Z,13.20
2018-05-05T05:52:11.075Z,5.23
2018-05-05T05:54:38.670Z,10.83
2018-05-05T05:57:06.293Z,8.50
2018-05-05T05:59:34.546Z,6.53
2018-05-05T06:02:02.119Z,7.40
2018-05-05T06:04:29.698Z,8.30
2018-05-05T06:06:58.224Z,7.37
2018-05-05T06:09:25.802Z,9.10
2018-05-05T06:11:53.383Z,5.37
2018-05-05T06:14:20.960Z,7.70
2018-05-05T06:16:48.598Z,12.33
2018-05-05T06:19:16.220Z,6.27
2018-05-05T06:21:43.794Z,7.23
2018-05-05T06:24:12.459Z,11.63
2018-05-05T06:26:40.856Z,9.73
2018-05-05T06:29:08.462Z,8.60
2018-05-05T06:31:36.037Z,5.90
2018-05-05T06:34:03.645Z,6.80
2018-05-05T06:36:31.221Z,10.67
2018-05-05T06:38:58.788Z,6.20
2018-05-05T06:41:26.381Z,31.90
2018-05-05T06:43:53.957Z,57.20
2018-05-05T06:46:21.528Z,6.50
2018-05-05T06:48:49.100Z,5.30
2018-05-05T06:51:16.709Z,6.50
2018-05-05T06:53:44.293Z,8.50
2018-05-05T06:56:11.901Z,5.93
2018-05-05T06:58:39.486Z,6.37
2018-05-05T07:01:07.065Z,6.90
2018-05-05T07:03:34.665Z,8.30
2018-05-05T07:06:03.695Z,8.10
2018-05-05T07:08:33.680Z,6.70
2018-05-05T07:11:02.773Z,6.70
2018-05-05T07:13:32.010Z,8.13
2018-05-05T07:16:01.381Z,7.13
2018-05-05T07:18:30.290Z,7.47
2018-05-05T07:21:00.193Z,6.20
2018-05-05T07:23:29.139Z,5.43
2018-05-05T07:25:58.691Z,6.00
2018-05-05T07:28:26.655Z,15.23
2018-05-05T07:31:17.736Z,5.93
2018-05-05T07:33:45.317Z,5.57
2018-05-05T07:36:12.902Z,8.73
2018-05-05T07:38:40.482Z,14.17
2018-05-05T07:41:14.723Z,12.30
2018-05-05T07:43:45.249Z,6.07
2018-05-05T07:46:12.909Z,5.20
2018-05-05T07:48:40.488Z,4.43
2018-05-05T07:51:08.153Z,4.80
2018-05-05T07:53:35.758Z,11.20
2018-05-05T07:56:03.333Z,9.00
2018-05-05T07:58:31.118Z,6.27
2018-05-05T08:00:59.539Z,17.40
2018-05-05T08:03:27.127Z,5.87
2018-05-05T08:05:54.735Z,9.10
2018-05-05T08:08:23.120Z,5.70
2018-05-05T08:10:52.300Z,5.13
2018-05-05T08:13:19.872Z,4.43
2018-05-05T08:15:47.441Z,6.33
2018-05-05T08:18:15.813Z,5.90
2018-05-05T08:20:44.358Z,7.00
2018-05-05T08:23:12.846Z,11.43
2018-05-05T08:25:41.207Z,4.50
2018-05-05T08:28:08.785Z,4.03
2018-05-05T08:30:36.363Z,2.23
2018-05-05T08:33:03.937Z,2.97
2018-05-05T08:35:32.281Z,5.20
2018-05-05T08:37:59.857Z,3.93
2018-05-05T08:40:27.434Z,3.23
2018-05-05T08:42:55.122Z,3.60
2018-05-05T08:45:22.692Z,8.13
2018-05-05T08:47:50.298Z,2.77
2018-05-05T08:50:17.878Z,3.73
2018-05-05T08:52:45.509Z,2.37
2018-05-05T08:55:13.126Z,6.13
2018-05-05T08:57:40.705Z,5.90
2018-05-05T09:00:08.309Z,3.50
2018-05-05T09:02:35.964Z,2.70
2018-05-05T09:05:03.547Z,5.43
2018-05-05T09:07:31.112Z,4.30
2018-05-05T09:09:58.806Z,4.33
2018-05-05T09:12:26.328Z,2.10
2018-05-05T09:14:53.921Z,2.60
2018-05-05T09:17:21.499Z,2.60
2018-05-05T09:19:49.100Z,4.67
2018-05-05T09:22:16.722Z,1.53
2018-05-05T09:24:44.298Z,1.80
2018-05-05T09:27:11.873Z,2.00
2018-05-05T09:29:39.450Z,4.43
2018-05-05T09:32:07.094Z,2.57
2018-05-05T09:34:35.063Z,2.40
2018-05-05T09:37:02.657Z,2.50
2018-05-05T09:39:30.306Z,3.97
2018-05-05T09:41:57.877Z,4.93
2018-05-05T09:44:25.663Z,6.30
2018-05-05T09:46:53.277Z,1.93
2018-05-05T09:49:21.008Z,1.87
2018-05-05T09:51:48.613Z,4.07
2018-05-05T09:54:16.194Z,3.10
2018-05-05T09:56:43.772Z,2.60
2018-05-05T09:59:11.397Z,6.50
2018-05-05T10:01:39.765Z,4.50
2018-05-05T10:04:07.336Z,3.97
2018-05-05T10:06:34.919Z,3.23
2018-05-05T10:09:02.832Z,1.73
2018-05-05T10:11:30.468Z,2.67
2018-05-05T10:13:58.042Z,3.67
2018-05-05T10:16:25.617Z,5.13
2018-05-05T10:18:53.184Z,1.80
2018-05-05T10:21:21.194Z,3.10
2018-05-05T10:23:50.870Z,2.57
2018-05-05T10:26:18.665Z,2.20
2018-05-05T10:28:46.237Z,9.00
2018-05-05T10:31:13.924Z,1.23
2018-05-05T10:33:42.440Z,2.93
2018-05-05T10:36:10.921Z,4.10
2018-05-05T10:38:39.297Z,4.43
2018-05-05T10:41:06.971Z,2.50
2018-05-05T10:43:34.628Z,3.70
2018-05-05T10:46:02.243Z,3.20
2018-05-05T10:48:29.818Z,2.10
2018-05-05T10:50:58.126Z,3.63
2018-05-05T10:53:25.700Z,2.60
2018-05-05T10:55:53.280Z,2.43
2018-05-05T10:58:20.853Z,14.73
2018-05-05T11:00:48.441Z,2.70
2018-05-05T11:03:16.013Z,7.17
2018-05-05T11:05:43.586Z,2.63
2018-05-05T11:08:11.165Z,2.27
2018-05-05T11:10:39.632Z,2.67
2018-05-05T11:13:07.272Z,3.10
2018-05-05T11:15:34.845Z,3.80
2018-05-05T11:18:02.421Z,4.03
2018-05-05T11:20:30.001Z,3.60
2018-05-05T11:22:58.429Z,2.40
2018-05-05T11:25:26.053Z,1.37
2018-05-05T11:27:53.666Z,5.10
2018-05-05T11:30:21.242Z,2.30
2018-05-05T11:32:48.857Z,3.10
2018-05-05T11:35:16.548Z,1.40
2018-05-05T11:37:45.021Z,4.70
2018-05-05T11:40:12.592Z,2.40
2018-05-05T11:42:40.210Z,1.37
2018-05-05T11:45:07.807Z,4.30
2018-05-05T11:47:35.420Z,3.60
2018-05-05T11:50:03.941Z,1.77
2018-05-05T11:52:31.902Z,3.37
2018-05-05T11:54:59.473Z,3.63
2018-05-05T11:57:27.045Z,2.77
2018-05-05T11:59:54.612Z,2.03
2018-05-05T12:02:22.262Z,3.00
2018-05-05T12:04:49.789Z,3.60
2018-05-05T12:07:18.269Z,7.63
2018-05-05T12:09:45.874Z,9.23
2018-05-05T12:12:14.309Z,1.57
2018-05-05T12:14:41.925Z,1.50
2018-05-05T12:17:09.500Z,2.03
2018-05-05T12:19:37.925Z,3.47
2018-05-05T12:22:05.499Z,6.17
2018-05-05T12:24:33.100Z,4.30
2018-05-05T12:27:00.717Z,3.53
2018-05-05T12:29:28.289Z,2.23
2018-05-05T12:31:55.862Z,4.93
2018-05-05T12:34:24.390Z,2.40
2018-05-05T12:36:51.975Z,2.40
2018-05-05T12:39:19.543Z,1.87
2018-05-05T12:41:47.113Z,1.40
2018-05-05T12:44:14.684Z,7.07
2018-05-05T12:46:42.257Z,2.70
2018-05-05T12:49:09.913Z,3.57
2018-05-05T12:51:37.500Z,3.27
2018-05-05T12:54:05.102Z,4.00
2018-05-05T12:56:32.732Z,4.40
2018-05-05T12:59:01.243Z,4.77
2018-05-05T13:01:29.611Z,3.20
2018-05-05T13:03:57.280Z,4.33
2018-05-05T13:06:24.885Z,1.33
2018-05-05T13:08:52.505Z,2.90
2018-05-05T13:11:20.863Z,2.90
2018-05-05T13:13:49.258Z,1.33
2018-05-05T13:16:17.552Z,1.37
2018-05-05T13:18:46.000Z,2.17
2018-05-05T13:21:13.664Z,4.00
2018-05-05T13:23:41.342Z,3.20
2018-05-05T13:26:08.958Z,2.80
2018-05-05T13:28:36.525Z,1.63
2018-05-05T13:31:04.904Z,1.90
2018-05-05T13:33:33.435Z,2.43
2018-05-05T13:36:01.010Z,1.90
2018-05-05T13:38:28.585Z,13.20
2018-05-05T13:40:57.126Z,4.60
2018-05-05T13:43:25.473Z,3.10
2018-05-05T13:45:53.833Z,4.20
2018-05-05T13:48:22.067Z,6.90
2018-05-05T13:50:49.642Z,4.13
2018-05-05T13:53:17.256Z,5.50
2018-05-05T13:55:44.833Z,4.03
2018-05-05T13:58:12.404Z,11.10
2018-05-05T14:00:40.914Z,2.30
2018-05-05T14:03:09.293Z,2.57
2018-05-05T14:05:36.896Z,5.80
2018-05-05T14:08:04.517Z,3.63
2018-05-05T14:10:32.086Z,4.40
2018-05-05T14:13:00.579Z,6.10
2018-05-05T14:15:28.844Z,10.47
2018-05-05T14:17:57.237Z,5.40
2018-05-05T14:20:25.697Z,6.07
2018-05-05T14:22:53.262Z,1.60
2018-05-05T14:25:20.831Z,9.90
2018-05-05T14:27:48.401Z,4.40
2018-05-05T14:30:16.789Z,4.40
2018-05-05T14:32:45.125Z,2.63
2018-05-05T14:35:13.589Z,2.33
2018-05-05T14:37:41.201Z,2.67
2018-05-05T14:40:09.461Z,2.97
2018-05-05T14:42:37.936Z,3.13
2018-05-05T14:45:05.686Z,3.80
2018-05-05T14:47:34.129Z,6.60
2018-05-05T14:50:02.485Z,3.03
2018-05-05T14:52:30.949Z,38.17
2018-05-05T14:54:58.533Z,10.37
2018-05-05T14:57:26.213Z,3.23
2018-05-05T14:59:54.562Z,3.67
2018-05-05T15:02:22.134Z,4.23
2018-05-05T15:04:49.702Z,4.07
2018-05-05T15:07:17.273Z,8.73
2018-05-05T15:09:44.904Z,3.00
2018-05-05T15:12:13.381Z,5.10
2018-05-05T15:14:40.984Z,3.60
2018-05-05T15:17:09.478Z,2.03
2018-05-05T15:19:37.846Z,5.73
2018-05-05T15:22:06.189Z,6.23
2018-05-05T15:24:33.760Z,3.17
2018-05-05T15:27:02.288Z,4.73
2018-05-05T15:29:30.673Z,3.33
2018-05-05T15:31:59.030Z,2.37
2018-05-05T15:34:26.651Z,7.13
2018-05-05T15:36:55.041Z,5.63
2018-05-05T15:39:23.502Z,3.13
2018-05-05T15:41:51.073Z,1.87
2018-05-05T15:44:18.644Z,4.17
2018-05-05T15:46:46.222Z,3.00
2018-05-05T15:49:14.572Z,2.27
2018-05-05T15:51:42.845Z,22.47
2018-05-05T15:54:11.189Z,44.07
2018-05-05T15:56:39.581Z,5.67
2018-05-05T15:59:08.069Z,2.40
2018-05-05T16:01:36.453Z,2.07
2018-05-05T16:04:04.909Z,5.33
2018-05-05T16:06:33.244Z,2.70
2018-05-05T16:09:01.590Z,1.90
2018-05-05T16:11:29.177Z,3.20
2018-05-05T16:13:56.784Z,3.23
2018-05-05T16:16:24.437Z,4.20
2018-05-05T16:18:52.040Z,3.67
2018-05-05T16:21:19.616Z,10.20
2018-05-05T16:23:47.186Z,7.03
2018-05-05T16:26:14.766Z,3.03
2018-05-05T16:28:42.337Z,2.00
2018-05-05T16:31:09.905Z,6.83
2018-05-05T16:33:37.482Z,7.03
2018-05-05T16:36:05.057Z,8.90
2018-05-05T16:38:32.631Z,3.20
2018-05-05T16:41:01.143Z,3.23
2018-05-05T16:43:29.432Z,3.63
2018-05-05T16:45:57.009Z,4.60
2018-05-05T16:48:25.397Z,3.07
2018-05-05T16:50:53.734Z,4.40
2018-05-05T16:53:21.305Z,2.77
2018-05-05T16:55:48.878Z,2.97
2018-05-05T16:58:17.368Z,2.40
2018-05-05T17:00:45.729Z,4.40
2018-05-05T17:03:13.309Z,5.13
2018-05-05T17:05:41.797Z,3.33
2018-05-05T17:08:10.150Z,4.57
2018-05-05T17:10:37.725Z,4.43
2018-05-05T17:13:05.378Z,10.80
2018-05-05T17:15:33.102Z,4.73
2018-05-05T17:18:00.730Z,3.77
2018-05-05T17:20:29.205Z,7.93
2018-05-05T17:22:56.797Z,11.33
2018-05-05T17:25:25.388Z,6.83
2018-05-05T17:27:53.012Z,3.77
2018-05-05T17:30:20.598Z,4.93
2018-05-05T17:32:48.174Z,4.43
2018-05-05T17:35:15.879Z,2.03
2018-05-05T17:37:43.425Z,4.57
2018-05-05T17:40:10.994Z,3.57
2018-05-05T17:42:39.409Z,2.77
2018-05-05T17:45:07.886Z,2.87
2018-05-05T17:47:36.367Z,5.60
2018-05-05T17:50:04.750Z,5.67
2018-05-05T17:52:32.317Z,3.03
2018-05-05T17:55:00.853Z,3.63
2018-05-05T17:57:28.427Z,2.97
2018-05-05T17:59:56.896Z,4.73
2018-05-05T18:02:24.465Z,3.20
2018-05-05T18:04:53.035Z,4.90
2018-05-05T18:07:21.400Z,3.43
2018-05-05T18:09:48.968Z,4.70
2018-05-05T18:12:16.537Z,5.23
2018-05-05T18:14:44.154Z,4.03
2018-05-05T18:17:11.727Z,3.73
2018-05-05T18:19:39.329Z,4.80
2018-05-05T18:22:07.713Z,3.97
2018-05-05T18:24:35.296Z,4.90
2018-05-05T18:27:02.864Z,7.57
2018-05-05T18:29:30.453Z,7.20
2018-05-05T18:31:58.127Z,6.23
2018-05-05T18:34:25.634Z,8.27
2018-05-05T18:36:53.245Z,9.60
2018-05-05T18:39:21.683Z,10.13
2018-05-05T18:41:50.130Z,12.30
2018-05-05T18:44:18.635Z,6.63
2018-05-05T18:46:46.570Z,8.03
2018-05-05T18:49:15.168Z,8.20
2018-05-05T18:51:43.582Z,6.63
2018-05-05T18:54:11.161Z,4.63
2018-05-05T18:56:38.771Z,6.80
2018-05-05T18:59:06.382Z,5.60
2018-05-05T19:01:33.953Z,5.60
2018-05-05T19:04:02.520Z,11.00
2018-05-05T19:06:30.142Z,24.43
2018-05-05T19:08:57.768Z,36.87
2018-05-05T19:11:25.576Z,50.57
2018-05-05T19:13:54.097Z,36.97
2018-05-05T19:16:21.722Z,30.33
2018-05-05T19:18:50.138Z,26.20
2018-05-05T19:21:18.653Z,25.10
2018-05-05T19:23:46.236Z,23.20
2018-05-05T19:26:13.844Z,18.37
2018-05-05T19:28:42.964Z,19.13
2018-05-05T19:31:10.555Z,13.30
2018-05-05T19:33:38.136Z,15.93
2018-05-05T19:36:05.717Z,14.30
2018-05-05T19:38:33.297Z,11.93
2018-05-05T19:41:00.954Z,17.97
2018-05-05T19:43:28.539Z,17.47
2018-05-05T19:45:56.837Z,19.83
2018-05-05T19:48:25.229Z,23.07
2018-05-05T19:50:52.868Z,21.00
2018-05-05T19:53:20.449Z,24.53
2018-05-05T19:55:48.039Z,24.13
2018-05-05T19:58:15.617Z,25.60
2018-05-05T20:00:43.204Z,29.60
2018-05-05T20:03:10.792Z,36.33
2018-05-05T20:05:38.379Z,43.03
2018-05-05T20:08:05.966Z,57.23
2018-05-05T20:10:33.594Z,60.13
2018-05-05T20:13:01.270Z,46.73
2018-05-05T20:15:28.913Z,37.70
2018-05-05T20:17:56.490Z,45.47
2018-05-05T20:20:24.071Z,33.67
2018-05-05T20:22:51.705Z,37.37
2018-05-05T20:25:19.287Z,29.33
2018-05-05T20:27:46.871Z,21.00
2018-05-05T20:30:15.276Z,22.23
2018-05-05T20:32:43.697Z,22.13
2018-05-05T20:35:11.347Z,14.40
2018-05-05T20:37:38.955Z,13.03
2018-05-05T20:40:06.847Z,14.40
2018-05-05T20:42:34.438Z,17.23
2018-05-05T20:45:02.017Z,16.77
2018-05-05T20:47:29.633Z,11.43
2018-05-05T20:49:57.703Z,8.83
2018-05-05T20:52:25.351Z,9.90
2018-05-05T20:54:53.030Z,12.73
2018-05-05T20:57:20.814Z,19.80
2018-05-05T20:59:48.545Z,14.27
2018-05-05T21:02:16.551Z,10.07
2018-05-05T21:04:45.080Z,10.27
2018-05-05T21:07:13.421Z,17.47
2018-05-05T21:09:41.177Z,9.03
2018-05-05T21:12:08.758Z,13.57
2018-05-05T21:14:37.233Z,15.47
2018-05-05T21:17:05.962Z,10.90
2018-05-05T21:19:34.446Z,9.40
2018-05-05T21:22:02.098Z,11.10
2018-05-05T21:24:29.665Z,8.50
2018-05-05T21:26:57.238Z,6.00
2018-05-05T21:29:25.592Z,9.60
2018-05-05T21:31:53.212Z,6.47
2018-05-05T21:34:21.593Z,5.40
2018-05-05T21:36:50.120Z,5.27
2018-05-05T21:39:17.789Z,5.70
2018-05-05T21:41:46.324Z,7.83
2018-05-05T21:44:14.863Z,5.60
2018-05-05T21:46:42.438Z,9.33
2018-05-05T21:49:10.050Z,7.57
2018-05-05T21:51:37.625Z,5.67
2018-05-05T21:54:05.241Z,6.10
2018-05-05T21:56:32.868Z,6.50
2018-05-05T21:59:00.487Z,8.50
2018-05-05T22:01:28.758Z,8.13
2018-05-05T22:03:56.467Z,4.80
2018-05-05T22:06:24.952Z,6.67
2018-05-05T22:08:52.529Z,7.70
2018-05-05T22:11:20.100Z,4.50
2018-05-05T22:13:48.577Z,19.17
2018-05-05T22:16:16.201Z,6.63
2018-05-05T22:18:43.776Z,14.33
2018-05-05T22:21:11.349Z,4.07
2018-05-05T22:23:39.753Z,12.53
2018-05-05T22:26:08.166Z,3.60
2018-05-05T22:28:36.517Z,5.70
2018-05-05T22:31:04.919Z,6.63
2018-05-05T22:33:32.506Z,12.07
2018-05-05T22:36:00.082Z,5.60
2018-05-05T22:38:28.588Z,6.43
2018-05-05T22:40:56.155Z,4.63
2018-05-05T22:43:24.629Z,6.70
2018-05-05T22:45:52.248Z,4.40
2018-05-05T22:48:20.764Z,10.30
2018-05-05T22:50:48.340Z,13.43
2018-05-05T22:53:15.914Z,8.50
2018-05-05T22:55:43.493Z,3.87
2018-05-05T22:58:11.151Z,8.80
2018-05-05T23:00:38.723Z,4.23
2018-05-05T23:03:07.202Z,9.13
2018-05-05T23:05:35.469Z,4.20
2018-05-05T23:08:03.049Z,4.50
2018-05-05T23:10:30.625Z,8.30
2018-05-05T23:12:58.228Z,5.83
2018-05-05T23:15:25.810Z,3.73
2018-05-05T23:17:53.385Z,5.37
2018-05-05T23:20:20.958Z,7.10
2018-05-05T23:22:48.541Z,5.53
2018-05-05T23:25:16.923Z,6.10
2018-05-05T23:27:45.286Z,7.70
2018-05-05T23:30:12.865Z,10.83
2018-05-05T23:32:40.439Z,8.27
2018-05-05T23:35:09.064Z,5.53
2018-05-05T23:37:36.631Z,6.70
2018-05-05T23:40:04.196Z,4.67
2018-05-05T23:42:31.764Z,8.83
2018-05-05T23:44:59.345Z,5.20
2018-05-05T23:47:26.953Z,5.23
2018-05-05T23:49:54.525Z,5.27
2018-05-05T23:52:22.140Z,7.00
2018-05-05T23:54:49.860Z,4.90
2018-05-05T23:57:17.466Z,8.23
2018-05-05T23:59:45.038Z,3.93
